Terminal Aerodrome Forecast
Issued by NWS

Home | Current Version | Previous Version | Text Only | Print | Product List | Glossary On
Versions: 1 2 3 4 5 6 7 8 9 10 11 12 13 14 15 16 17 18 19 20 21
000
FTUS43 KILX 191700 RRA
TAFBMI
TAF
KBMI 191743Z 1918/2018 VRB03KT P6SM SCT015
     FM200700 VRB03KT P6SM BKN050
     FM201600 14007KT 4SM BR BKN025=

USA.gov is the U.S. government's official web portal to all federal, state and local government web resources and services.